sensor_id;sensor_type;location;lat;lon;timestamp;P1;durP1;ratioP1;P2;durP2;ratioP2
79460;SDS011;68929;42.666;23.324;2023-05-24T00:02:20;9.45;;;7.78;;
79460;SDS011;68929;42.666;23.324;2023-05-24T00:04:47;14.25;;;8.95;;
79460;SDS011;68929;42.666;23.324;2023-05-24T00:07:13;12.60;;;8.85;;
79460;SDS011;68929;42.666;23.324;2023-05-24T00:09:40;10.23;;;7.75;;
79460;SDS011;68929;42.666;23.324;2023-05-24T00:12:06;10.43;;;8.38;;
79460;SDS011;68929;42.666;23.324;2023-05-24T00:14:32;11.82;;;8.13;;
79460;SDS011;68929;42.666;23.324;2023-05-24T00:16:57;12.85;;;8.43;;
79460;SDS011;68929;42.666;23.324;2023-05-24T00:19:23;10.55;;;7.60;;
79460;SDS011;68929;42.666;23.324;2023-05-24T00:21:49;11.95;;;8.00;;
79460;SDS011;68929;42.666;23.324;2023-05-24T00:24:15;14.80;;;8.32;;
79460;SDS011;68929;42.666;23.324;2023-05-24T00:26:41;11.80;;;8.30;;
79460;SDS011;68929;42.666;23.324;2023-05-24T00:29:07;12.75;;;8.43;;
79460;SDS011;68929;42.666;23.324;2023-05-24T00:31:32;12.98;;;8.43;;
79460;SDS011;68929;42.666;23.324;2023-05-24T00:33:58;13.57;;;8.40;;
79460;SDS011;68929;42.666;23.324;2023-05-24T00:36:23;11.40;;;7.97;;
79460;SDS011;68929;42.666;23.324;2023-05-24T00:38:49;9.27;;;7.65;;
79460;SDS011;68929;42.666;23.324;2023-05-24T00:41:16;12.70;;;7.88;;
79460;SDS011;68929;42.666;23.324;2023-05-24T00:43:42;15.13;;;8.55;;
79460;SDS011;68929;42.666;23.324;2023-05-24T00:51:04;14.82;;;8.68;;
79460;SDS011;68929;42.666;23.324;2023-05-24T00:53:30;9.75;;;7.30;;
79460;SDS011;68929;42.666;23.324;2023-05-24T00:55:57;12.73;;;8.10;;
79460;SDS011;68929;42.666;23.324;2023-05-24T00:58:23;13.40;;;8.52;;
79460;SDS011;68929;42.666;23.324;2023-05-24T01:00:55;11.88;;;8.00;;
79460;SDS011;68929;42.666;23.324;2023-05-24T01:03:23;12.90;;;7.65;;
79460;SDS011;68929;42.666;23.324;2023-05-24T01:05:50;12.38;;;7.70;;
79460;SDS011;68929;42.666;23.324;2023-05-24T01:10:58;11.10;;;7.47;;
79460;SDS011;68929;42.666;23.324;2023-05-24T01:16:30;11.20;;;7.68;;
79460;SDS011;68929;42.666;23.324;2023-05-24T01:19:27;9.75;;;7.95;;
79460;SDS011;68929;42.666;23.324;2023-05-24T01:22:07;10.25;;;7.63;;
79460;SDS011;68929;42.666;23.324;2023-05-24T01:24:45;16.10;;;8.27;;
79460;SDS011;68929;42.666;23.324;2023-05-24T01:27:23;9.70;;;7.57;;
79460;SDS011;68929;42.666;23.324;2023-05-24T01:29:49;12.13;;;7.93;;
79460;SDS011;68929;42.666;23.324;2023-05-24T01:32:20;12.02;;;7.97;;
79460;SDS011;68929;42.666;23.324;2023-05-24T01:34:45;10.77;;;7.78;;
79460;SDS011;68929;42.666;23.324;2023-05-24T01:37:11;11.90;;;7.95;;
79460;SDS011;68929;42.666;23.324;2023-05-24T01:39:36;11.35;;;8.05;;
79460;SDS011;68929;42.666;23.324;2023-05-24T01:50:06;10.93;;;7.40;;
79460;SDS011;68929;42.666;23.324;2023-05-24T01:52:46;9.93;;;8.93;;
79460;SDS011;68929;42.666;23.324;2023-05-24T01:55:16;14.35;;;8.95;;
79460;SDS011;68929;42.666;23.324;2023-05-24T01:57:42;14.27;;;8.38;;
79460;SDS011;68929;42.666;23.324;2023-05-24T02:00:10;12.93;;;8.18;;
79460;SDS011;68929;42.666;23.324;2023-05-24T02:02:38;17.00;;;8.52;;
79460;SDS011;68929;42.666;23.324;2023-05-24T02:05:04;11.48;;;8.18;;
79460;SDS011;68929;42.666;23.324;2023-05-24T02:07:30;12.60;;;8.43;;
79460;SDS011;68929;42.666;23.324;2023-05-24T02:09:55;10.38;;;8.05;;
79460;SDS011;68929;42.666;23.324;2023-05-24T02:12:21;9.35;;;8.25;;
79460;SDS011;68929;42.666;23.324;2023-05-24T02:14:46;12.80;;;8.50;;
79460;SDS011;68929;42.666;23.324;2023-05-24T02:17:15;12.93;;;8.30;;
79460;SDS011;68929;42.666;23.324;2023-05-24T02:19:42;10.98;;;8.52;;
79460;SDS011;68929;42.666;23.324;2023-05-24T02:22:08;12.00;;;7.80;;
79460;SDS011;68929;42.666;23.324;2023-05-24T02:24:33;12.15;;;8.48;;
79460;SDS011;68929;42.666;23.324;2023-05-24T02:26:58;8.05;;;7.25;;
79460;SDS011;68929;42.666;23.324;2023-05-24T02:29:25;10.68;;;8.07;;
79460;SDS011;68929;42.666;23.324;2023-05-24T02:31:51;14.23;;;8.45;;
79460;SDS011;68929;42.666;23.324;2023-05-24T02:34:20;10.85;;;7.18;;
79460;SDS011;68929;42.666;23.324;2023-05-24T02:36:47;9.55;;;7.68;;
79460;SDS011;68929;42.666;23.324;2023-05-24T02:39:13;10.30;;;8.20;;
79460;SDS011;68929;42.666;23.324;2023-05-24T02:41:39;13.30;;;8.20;;
79460;SDS011;68929;42.666;23.324;2023-05-24T02:44:05;10.38;;;7.25;;
79460;SDS011;68929;42.666;23.324;2023-05-24T02:46:30;11.88;;;7.72;;
79460;SDS011;68929;42.666;23.324;2023-05-24T02:48:55;13.27;;;8.23;;
79460;SDS011;68929;42.666;23.324;2023-05-24T02:51:21;8.43;;;7.45;;
79460;SDS011;68929;42.666;23.324;2023-05-24T02:53:46;11.45;;;7.68;;
79460;SDS011;68929;42.666;23.324;2023-05-24T02:56:12;10.10;;;7.65;;
79460;SDS011;68929;42.666;23.324;2023-05-24T02:58:38;10.10;;;7.38;;
79460;SDS011;68929;42.666;23.324;2023-05-24T03:01:05;10.10;;;7.82;;
79460;SDS011;68929;42.666;23.324;2023-05-24T03:03:32;11.93;;;10.20;;
79460;SDS011;68929;42.666;23.324;2023-05-24T03:05:57;13.90;;;10.52;;
79460;SDS011;68929;42.666;23.324;2023-05-24T03:08:23;15.25;;;9.52;;
79460;SDS011;68929;42.666;23.324;2023-05-24T03:10:48;14.20;;;10.65;;
79460;SDS011;68929;42.666;23.324;2023-05-24T03:13:14;19.73;;;10.52;;
79460;SDS011;68929;42.666;23.324;2023-05-24T03:15:39;15.40;;;10.13;;
79460;SDS011;68929;42.666;23.324;2023-05-24T03:18:04;15.18;;;9.55;;
79460;SDS011;68929;42.666;23.324;2023-05-24T03:20:30;14.00;;;9.40;;
79460;SDS011;68929;42.666;23.324;2023-05-24T03:22:55;10.93;;;9.70;;
79460;SDS011;68929;42.666;23.324;2023-05-24T03:25:21;9.65;;;8.38;;
79460;SDS011;68929;42.666;23.324;2023-05-24T03:27:46;14.13;;;9.52;;
79460;SDS011;68929;42.666;23.324;2023-05-24T03:30:12;16.45;;;10.02;;
79460;SDS011;68929;42.666;23.324;2023-05-24T03:32:37;13.75;;;8.80;;
79460;SDS011;68929;42.666;23.324;2023-05-24T03:35:03;16.70;;;11.38;;
79460;SDS011;68929;42.666;23.324;2023-05-24T03:37:28;17.02;;;12.70;;
79460;SDS011;68929;42.666;23.324;2023-05-24T03:39:53;12.80;;;10.35;;
79460;SDS011;68929;42.666;23.324;2023-05-24T03:42:19;15.25;;;11.60;;
79460;SDS011;68929;42.666;23.324;2023-05-24T03:44:45;16.52;;;12.35;;
79460;SDS011;68929;42.666;23.324;2023-05-24T03:47:11;23.83;;;11.10;;
79460;SDS011;68929;42.666;23.324;2023-05-24T03:49:36;18.38;;;12.73;;
79460;SDS011;68929;42.666;23.324;2023-05-24T03:52:01;20.02;;;13.02;;
79460;SDS011;68929;42.666;23.324;2023-05-24T03:54:27;18.67;;;12.07;;
79460;SDS011;68929;42.666;23.324;2023-05-24T03:56:52;13.98;;;10.23;;
79460;SDS011;68929;42.666;23.324;2023-05-24T03:59:18;14.60;;;11.77;;
79460;SDS011;68929;42.666;23.324;2023-05-24T04:01:45;16.15;;;12.25;;
79460;SDS011;68929;42.666;23.324;2023-05-24T04:04:11;11.68;;;9.20;;
79460;SDS011;68929;42.666;23.324;2023-05-24T04:06:36;15.70;;;11.55;;
79460;SDS011;68929;42.666;23.324;2023-05-24T04:09:02;16.15;;;12.73;;
79460;SDS011;68929;42.666;23.324;2023-05-24T04:11:29;14.02;;;8.32;;
79460;SDS011;68929;42.666;23.324;2023-05-24T04:13:56;11.75;;;8.32;;
79460;SDS011;68929;42.666;23.324;2023-05-24T04:16:24;17.85;;;10.30;;
79460;SDS011;68929;42.666;23.324;2023-05-24T04:18:51;10.70;;;9.32;;
79460;SDS011;68929;42.666;23.324;2023-05-24T04:21:17;15.35;;;10.25;;
79460;SDS011;68929;42.666;23.324;2023-05-24T04:23:43;13.77;;;10.57;;
79460;SDS011;68929;42.666;23.324;2023-05-24T04:26:09;10.73;;;7.45;;
79460;SDS011;68929;42.666;23.324;2023-05-24T04:28:35;10.57;;;8.98;;
79460;SDS011;68929;42.666;23.324;2023-05-24T04:31:02;11.35;;;7.50;;
79460;SDS011;68929;42.666;23.324;2023-05-24T04:33:30;12.50;;;9.77;;
79460;SDS011;68929;42.666;23.324;2023-05-24T04:35:56;11.38;;;7.30;;
79460;SDS011;68929;42.666;23.324;2023-05-24T04:38:25;12.30;;;8.70;;
79460;SDS011;68929;42.666;23.324;2023-05-24T04:40:53;9.00;;;6.68;;
79460;SDS011;68929;42.666;23.324;2023-05-24T04:43:23;9.48;;;6.60;;
79460;SDS011;68929;42.666;23.324;2023-05-24T04:45:50;8.15;;;6.60;;
79460;SDS011;68929;42.666;23.324;2023-05-24T04:48:16;6.20;;;5.40;;
79460;SDS011;68929;42.666;23.324;2023-05-24T04:50:41;10.77;;;9.63;;
79460;SDS011;68929;42.666;23.324;2023-05-24T04:53:06;15.65;;;8.35;;
79460;SDS011;68929;42.666;23.324;2023-05-24T04:55:32;16.33;;;10.02;;
79460;SDS011;68929;42.666;23.324;2023-05-24T04:57:58;14.73;;;10.88;;
79460;SDS011;68929;42.666;23.324;2023-05-24T05:00:23;11.18;;;8.00;;
79460;SDS011;68929;42.666;23.324;2023-05-24T05:02:48;12.85;;;9.20;;
79460;SDS011;68929;42.666;23.324;2023-05-24T05:05:14;8.10;;;6.93;;
79460;SDS011;68929;42.666;23.324;2023-05-24T05:07:40;13.43;;;10.45;;
79460;SDS011;68929;42.666;23.324;2023-05-24T05:10:06;10.00;;;7.25;;
79460;SDS011;68929;42.666;23.324;2023-05-24T05:12:31;12.60;;;9.57;;
79460;SDS011;68929;42.666;23.324;2023-05-24T05:14:57;10.88;;;7.40;;
79460;SDS011;68929;42.666;23.324;2023-05-24T05:17:22;13.38;;;9.30;;
79460;SDS011;68929;42.666;23.324;2023-05-24T05:19:48;11.65;;;9.82;;
79460;SDS011;68929;42.666;23.324;2023-05-24T05:22:13;11.43;;;7.88;;
79460;SDS011;68929;42.666;23.324;2023-05-24T05:24:38;10.40;;;8.32;;
79460;SDS011;68929;42.666;23.324;2023-05-24T05:27:04;13.25;;;10.75;;
79460;SDS011;68929;42.666;23.324;2023-05-24T05:29:30;14.27;;;9.85;;
79460;SDS011;68929;42.666;23.324;2023-05-24T05:31:55;17.90;;;11.98;;
79460;SDS011;68929;42.666;23.324;2023-05-24T05:34:20;14.40;;;10.65;;
79460;SDS011;68929;42.666;23.324;2023-05-24T05:36:46;20.33;;;12.57;;
79460;SDS011;68929;42.666;23.324;2023-05-24T05:39:11;19.67;;;11.05;;
79460;SDS011;68929;42.666;23.324;2023-05-24T05:41:40;7.80;;;6.55;;
79460;SDS011;68929;42.666;23.324;2023-05-24T05:44:10;13.65;;;10.27;;
79460;SDS011;68929;42.666;23.324;2023-05-24T05:46:36;15.85;;;11.95;;
79460;SDS011;68929;42.666;23.324;2023-05-24T05:49:02;13.30;;;11.90;;
79460;SDS011;68929;42.666;23.324;2023-05-24T05:51:28;13.25;;;9.18;;
79460;SDS011;68929;42.666;23.324;2023-05-24T05:53:54;16.83;;;11.60;;
79460;SDS011;68929;42.666;23.324;2023-05-24T05:56:19;19.83;;;11.25;;
79460;SDS011;68929;42.666;23.324;2023-05-24T05:58:45;11.02;;;8.23;;
79460;SDS011;68929;42.666;23.324;2023-05-24T06:01:10;12.10;;;9.18;;
79460;SDS011;68929;42.666;23.324;2023-05-24T06:03:35;14.50;;;9.50;;
79460;SDS011;68929;42.666;23.324;2023-05-24T06:06:01;9.85;;;6.90;;
79460;SDS011;68929;42.666;23.324;2023-05-24T06:08:26;11.98;;;10.65;;
79460;SDS011;68929;42.666;23.324;2023-05-24T06:10:54;9.70;;;6.80;;
79460;SDS011;68929;42.666;23.324;2023-05-24T06:13:20;18.05;;;10.90;;
79460;SDS011;68929;42.666;23.324;2023-05-24T06:15:45;10.73;;;9.35;;
79460;SDS011;68929;42.666;23.324;2023-05-24T06:18:11;12.32;;;9.70;;
79460;SDS011;68929;42.666;23.324;2023-05-24T06:20:37;10.10;;;8.57;;
79460;SDS011;68929;42.666;23.324;2023-05-24T06:23:02;10.35;;;8.07;;
79460;SDS011;68929;42.666;23.324;2023-05-24T06:25:29;13.55;;;9.55;;
79460;SDS011;68929;42.666;23.324;2023-05-24T06:27:55;12.98;;;8.63;;
79460;SDS011;68929;42.666;23.324;2023-05-24T06:30:20;13.32;;;9.13;;
79460;SDS011;68929;42.666;23.324;2023-05-24T06:32:46;17.20;;;10.68;;
79460;SDS011;68929;42.666;23.324;2023-05-24T06:35:11;19.85;;;11.20;;
79460;SDS011;68929;42.666;23.324;2023-05-24T06:37:37;13.55;;;9.20;;
79460;SDS011;68929;42.666;23.324;2023-05-24T06:40:03;15.13;;;9.55;;
79460;SDS011;68929;42.666;23.324;2023-05-24T06:42:30;16.30;;;10.45;;
79460;SDS011;68929;42.666;23.324;2023-05-24T06:44:56;12.10;;;7.47;;
79460;SDS011;68929;42.666;23.324;2023-05-24T06:47:22;8.60;;;7.07;;
79460;SDS011;68929;42.666;23.324;2023-05-24T06:49:50;11.65;;;7.65;;
79460;SDS011;68929;42.666;23.324;2023-05-24T06:52:15;11.65;;;6.90;;
79460;SDS011;68929;42.666;23.324;2023-05-24T06:54:41;10.48;;;7.53;;
79460;SDS011;68929;42.666;23.324;2023-05-24T06:57:06;11.18;;;6.35;;
79460;SDS011;68929;42.666;23.324;2023-05-24T06:59:41;13.68;;;8.25;;
79460;SDS011;68929;42.666;23.324;2023-05-24T07:02:06;10.52;;;8.80;;
79460;SDS011;68929;42.666;23.324;2023-05-24T07:04:32;9.13;;;6.78;;
79460;SDS011;68929;42.666;23.324;2023-05-24T07:06:58;10.32;;;7.10;;
79460;SDS011;68929;42.666;23.324;2023-05-24T07:09:26;11.00;;;7.47;;
79460;SDS011;68929;42.666;23.324;2023-05-24T07:11:55;14.15;;;8.38;;
79460;SDS011;68929;42.666;23.324;2023-05-24T07:14:21;10.85;;;6.53;;
79460;SDS011;68929;42.666;23.324;2023-05-24T07:16:48;14.05;;;9.27;;
79460;SDS011;68929;42.666;23.324;2023-05-24T07:19:14;11.52;;;8.43;;
79460;SDS011;68929;42.666;23.324;2023-05-24T07:21:39;11.80;;;8.60;;
79460;SDS011;68929;42.666;23.324;2023-05-24T07:24:05;7.55;;;5.72;;
79460;SDS011;68929;42.666;23.324;2023-05-24T07:26:30;11.25;;;6.30;;
79460;SDS011;68929;42.666;23.324;2023-05-24T07:28:56;8.05;;;5.97;;
79460;SDS011;68929;42.666;23.324;2023-05-24T07:31:21;10.23;;;8.18;;
79460;SDS011;68929;42.666;23.324;2023-05-24T07:33:47;6.85;;;5.60;;
79460;SDS011;68929;42.666;23.324;2023-05-24T07:36:13;10.77;;;6.03;;
79460;SDS011;68929;42.666;23.324;2023-05-24T07:38:39;13.05;;;6.53;;
79460;SDS011;68929;42.666;23.324;2023-05-24T07:41:05;16.88;;;8.00;;
79460;SDS011;68929;42.666;23.324;2023-05-24T07:43:31;17.40;;;10.18;;
79460;SDS011;68929;42.666;23.324;2023-05-24T07:45:56;21.40;;;11.30;;
79460;SDS011;68929;42.666;23.324;2023-05-24T07:48:22;19.70;;;10.60;;
79460;SDS011;68929;42.666;23.324;2023-05-24T07:50:48;12.18;;;8.63;;
79460;SDS011;68929;42.666;23.324;2023-05-24T07:53:14;11.45;;;6.78;;
79460;SDS011;68929;42.666;23.324;2023-05-24T07:55:40;13.20;;;9.70;;
79460;SDS011;68929;42.666;23.324;2023-05-24T07:58:06;11.95;;;7.55;;
79460;SDS011;68929;42.666;23.324;2023-05-24T08:00:31;9.50;;;6.53;;
79460;SDS011;68929;42.666;23.324;2023-05-24T08:02:58;13.90;;;9.23;;
79460;SDS011;68929;42.666;23.324;2023-05-24T08:05:24;9.48;;;7.75;;
79460;SDS011;68929;42.666;23.324;2023-05-24T08:07:49;9.80;;;6.78;;
79460;SDS011;68929;42.666;23.324;2023-05-24T08:10:15;11.00;;;7.07;;
79460;SDS011;68929;42.666;23.324;2023-05-24T08:12:44;11.07;;;6.70;;
79460;SDS011;68929;42.666;23.324;2023-05-24T08:15:09;7.35;;;6.55;;
79460;SDS011;68929;42.666;23.324;2023-05-24T08:17:36;12.65;;;7.40;;
79460;SDS011;68929;42.666;23.324;2023-05-24T08:20:02;13.50;;;7.72;;
79460;SDS011;68929;42.666;23.324;2023-05-24T08:22:37;13.13;;;7.45;;
79460;SDS011;68929;42.666;23.324;2023-05-24T08:25:05;10.90;;;6.53;;
79460;SDS011;68929;42.666;23.324;2023-05-24T08:27:36;12.68;;;5.93;;
79460;SDS011;68929;42.666;23.324;2023-05-24T08:30:02;9.13;;;5.43;;
79460;SDS011;68929;42.666;23.324;2023-05-24T08:32:28;7.80;;;4.82;;
79460;SDS011;68929;42.666;23.324;2023-05-24T08:34:53;9.50;;;5.05;;
79460;SDS011;68929;42.666;23.324;2023-05-24T08:37:20;10.60;;;4.93;;
79460;SDS011;68929;42.666;23.324;2023-05-24T08:39:46;7.07;;;4.38;;
79460;SDS011;68929;42.666;23.324;2023-05-24T08:42:12;7.88;;;5.85;;
79460;SDS011;68929;42.666;23.324;2023-05-24T08:44:52;5.47;;;4.40;;
79460;SDS011;68929;42.666;23.324;2023-05-24T08:47:22;5.65;;;5.05;;
79460;SDS011;68929;42.666;23.324;2023-05-24T08:49:49;5.55;;;4.30;;
79460;SDS011;68929;42.666;23.324;2023-05-24T08:52:16;6.88;;;4.88;;
79460;SDS011;68929;42.666;23.324;2023-05-24T08:54:42;8.13;;;4.90;;
79460;SDS011;68929;42.666;23.324;2023-05-24T08:57:08;10.02;;;4.65;;
79460;SDS011;68929;42.666;23.324;2023-05-24T08:59:36;6.57;;;3.45;;
79460;SDS011;68929;42.666;23.324;2023-05-24T09:02:04;6.40;;;3.63;;
79460;SDS011;68929;42.666;23.324;2023-05-24T09:04:29;5.25;;;3.70;;
79460;SDS011;68929;42.666;23.324;2023-05-24T09:06:55;9.88;;;4.68;;
79460;SDS011;68929;42.666;23.324;2023-05-24T09:09:23;12.27;;;4.53;;
79460;SDS011;68929;42.666;23.324;2023-05-24T09:11:51;5.05;;;3.78;;
79460;SDS011;68929;42.666;23.324;2023-05-24T09:14:24;9.18;;;3.70;;
79460;SDS011;68929;42.666;23.324;2023-05-24T09:16:52;6.90;;;3.30;;
79460;SDS011;68929;42.666;23.324;2023-05-24T09:19:19;5.10;;;3.45;;
79460;SDS011;68929;42.666;23.324;2023-05-24T09:21:45;6.97;;;3.33;;
79460;SDS011;68929;42.666;23.324;2023-05-24T09:24:16;6.13;;;3.28;;
79460;SDS011;68929;42.666;23.324;2023-05-24T09:26:44;7.82;;;4.20;;
79460;SDS011;68929;42.666;23.324;2023-05-24T09:29:14;5.05;;;3.35;;
79460;SDS011;68929;42.666;23.324;2023-05-24T09:31:39;4.55;;;3.22;;
79460;SDS011;68929;42.666;23.324;2023-05-24T09:34:08;8.02;;;3.70;;
79460;SDS011;68929;42.666;23.324;2023-05-24T09:36:35;9.67;;;4.00;;
79460;SDS011;68929;42.666;23.324;2023-05-24T09:39:06;8.23;;;3.70;;
79460;SDS011;68929;42.666;23.324;2023-05-24T09:41:36;4.73;;;4.13;;
79460;SDS011;68929;42.666;23.324;2023-05-24T09:44:01;9.27;;;3.83;;
79460;SDS011;68929;42.666;23.324;2023-05-24T09:46:34;6.18;;;3.50;;
79460;SDS011;68929;42.666;23.324;2023-05-24T09:49:00;5.90;;;3.38;;
79460;SDS011;68929;42.666;23.324;2023-05-24T09:51:28;4.47;;;3.40;;
79460;SDS011;68929;42.666;23.324;2023-05-24T09:53:57;4.10;;;3.13;;
79460;SDS011;68929;42.666;23.324;2023-05-24T09:56:25;4.05;;;3.08;;
79460;SDS011;68929;42.666;23.324;2023-05-24T09:58:51;3.75;;;3.40;;
79460;SDS011;68929;42.666;23.324;2023-05-24T10:01:19;9.43;;;4.05;;
79460;SDS011;68929;42.666;23.324;2023-05-24T10:03:51;9.98;;;4.32;;
79460;SDS011;68929;42.666;23.324;2023-05-24T10:06:32;6.15;;;3.70;;
79460;SDS011;68929;42.666;23.324;2023-05-24T10:09:11;6.88;;;3.78;;
79460;SDS011;68929;42.666;23.324;2023-05-24T10:11:37;8.27;;;3.92;;
79460;SDS011;68929;42.666;23.324;2023-05-24T10:14:04;5.72;;;3.58;;
79460;SDS011;68929;42.666;23.324;2023-05-24T10:16:34;8.05;;;4.28;;
79460;SDS011;68929;42.666;23.324;2023-05-24T10:19:01;6.82;;;3.80;;
79460;SDS011;68929;42.666;23.324;2023-05-24T10:21:28;4.90;;;3.75;;
79460;SDS011;68929;42.666;23.324;2023-05-24T10:23:56;5.25;;;3.70;;
79460;SDS011;68929;42.666;23.324;2023-05-24T10:26:23;5.47;;;3.58;;
79460;SDS011;68929;42.666;23.324;2023-05-24T10:28:51;5.55;;;3.72;;
79460;SDS011;68929;42.666;23.324;2023-05-24T10:31:29;5.63;;;3.45;;
79460;SDS011;68929;42.666;23.324;2023-05-24T10:33:59;5.85;;;3.50;;
79460;SDS011;68929;42.666;23.324;2023-05-24T10:36:30;6.05;;;3.38;;
79460;SDS011;68929;42.666;23.324;2023-05-24T10:38:56;3.38;;;3.08;;
79460;SDS011;68929;42.666;23.324;2023-05-24T10:41:24;6.82;;;3.30;;
79460;SDS011;68929;42.666;23.324;2023-05-24T10:43:51;6.68;;;3.38;;
79460;SDS011;68929;42.666;23.324;2023-05-24T10:46:17;3.92;;;2.90;;
79460;SDS011;68929;42.666;23.324;2023-05-24T10:48:57;3.92;;;3.22;;
79460;SDS011;68929;42.666;23.324;2023-05-24T10:51:28;8.20;;;3.53;;
79460;SDS011;68929;42.666;23.324;2023-05-24T10:54:05;5.43;;;3.78;;
79460;SDS011;68929;42.666;23.324;2023-05-24T10:56:47;5.00;;;3.47;;
79460;SDS011;68929;42.666;23.324;2023-05-24T10:59:27;5.82;;;3.60;;
79460;SDS011;68929;42.666;23.324;2023-05-24T11:02:06;6.05;;;3.38;;
79460;SDS011;68929;42.666;23.324;2023-05-24T11:04:42;3.60;;;3.30;;
79460;SDS011;68929;42.666;23.324;2023-05-24T11:07:11;3.70;;;3.38;;
79460;SDS011;68929;42.666;23.324;2023-05-24T11:09:38;10.88;;;3.45;;
79460;SDS011;68929;42.666;23.324;2023-05-24T11:12:11;4.82;;;3.20;;
79460;SDS011;68929;42.666;23.324;2023-05-24T11:14:58;3.88;;;3.22;;
79460;SDS011;68929;42.666;23.324;2023-05-24T11:17:26;5.15;;;3.20;;
79460;SDS011;68929;42.666;23.324;2023-05-24T11:19:52;3.35;;;3.05;;
79460;SDS011;68929;42.666;23.324;2023-05-24T11:22:20;7.18;;;3.40;;
79460;SDS011;68929;42.666;23.324;2023-05-24T11:24:46;4.63;;;3.50;;
79460;SDS011;68929;42.666;23.324;2023-05-24T11:27:12;4.55;;;3.15;;
79460;SDS011;68929;42.666;23.324;2023-05-24T11:29:42;5.15;;;3.17;;
79460;SDS011;68929;42.666;23.324;2023-05-24T11:32:10;5.22;;;3.20;;
79460;SDS011;68929;42.666;23.324;2023-05-24T11:34:39;4.95;;;3.13;;
79460;SDS011;68929;42.666;23.324;2023-05-24T11:37:08;4.65;;;2.90;;
79460;SDS011;68929;42.666;23.324;2023-05-24T11:39:37;4.15;;;3.03;;
79460;SDS011;68929;42.666;23.324;2023-05-24T11:42:03;5.57;;;3.00;;
79460;SDS011;68929;42.666;23.324;2023-05-24T11:44:30;5.70;;;3.30;;
79460;SDS011;68929;42.666;23.324;2023-05-24T11:46:57;5.72;;;3.50;;
79460;SDS011;68929;42.666;23.324;2023-05-24T11:49:27;7.32;;;3.50;;
79460;SDS011;68929;42.666;23.324;2023-05-24T11:51:53;5.22;;;2.97;;
79460;SDS011;68929;42.666;23.324;2023-05-24T11:54:21;6.75;;;3.10;;
79460;SDS011;68929;42.666;23.324;2023-05-24T11:56:47;5.75;;;3.63;;
79460;SDS011;68929;42.666;23.324;2023-05-24T11:59:16;6.00;;;3.50;;
79460;SDS011;68929;42.666;23.324;2023-05-24T12:02:06;4.32;;;3.03;;
79460;SDS011;68929;42.666;23.324;2023-05-24T12:04:33;6.13;;;3.17;;
79460;SDS011;68929;42.666;23.324;2023-05-24T12:06:59;4.55;;;3.10;;
79460;SDS011;68929;42.666;23.324;2023-05-24T12:09:25;6.90;;;3.75;;
79460;SDS011;68929;42.666;23.324;2023-05-24T12:11:56;4.10;;;3.13;;
79460;SDS011;68929;42.666;23.324;2023-05-24T12:14:28;8.98;;;3.50;;
79460;SDS011;68929;42.666;23.324;2023-05-24T12:16:55;5.53;;;3.30;;
79460;SDS011;68929;42.666;23.324;2023-05-24T12:19:31;3.55;;;2.63;;
79460;SDS011;68929;42.666;23.324;2023-05-24T12:24:24;5.22;;;3.50;;
79460;SDS011;68929;42.666;23.324;2023-05-24T12:26:58;6.28;;;3.00;;
79460;SDS011;68929;42.666;23.324;2023-05-24T12:29:34;4.68;;;3.20;;
79460;SDS011;68929;42.666;23.324;2023-05-24T12:32:04;6.22;;;3.08;;
79460;SDS011;68929;42.666;23.324;2023-05-24T12:34:35;5.43;;;3.22;;
79460;SDS011;68929;42.666;23.324;2023-05-24T12:37:01;5.70;;;3.17;;
79460;SDS011;68929;42.666;23.324;2023-05-24T12:39:27;5.75;;;3.28;;
79460;SDS011;68929;42.666;23.324;2023-05-24T12:42:03;4.22;;;3.15;;
79460;SDS011;68929;42.666;23.324;2023-05-24T12:44:35;4.75;;;3.67;;
79460;SDS011;68929;42.666;23.324;2023-05-24T12:47:01;5.82;;;3.65;;
79460;SDS011;68929;42.666;23.324;2023-05-24T12:49:28;5.22;;;3.40;;
79460;SDS011;68929;42.666;23.324;2023-05-24T12:51:55;6.15;;;3.38;;
79460;SDS011;68929;42.666;23.324;2023-05-24T12:54:24;5.65;;;3.50;;
79460;SDS011;68929;42.666;23.324;2023-05-24T12:59:17;5.00;;;3.30;;
79460;SDS011;68929;42.666;23.324;2023-05-24T13:01:43;7.50;;;3.50;;
79460;SDS011;68929;42.666;23.324;2023-05-24T13:04:14;4.68;;;3.40;;
79460;SDS011;68929;42.666;23.324;2023-05-24T13:06:39;8.57;;;3.55;;
79460;SDS011;68929;42.666;23.324;2023-05-24T13:09:05;4.10;;;3.17;;
79460;SDS011;68929;42.666;23.324;2023-05-24T13:11:30;5.25;;;3.42;;
79460;SDS011;68929;42.666;23.324;2023-05-24T13:13:56;6.90;;;3.55;;
79460;SDS011;68929;42.666;23.324;2023-05-24T13:16:21;5.40;;;2.92;;
79460;SDS011;68929;42.666;23.324;2023-05-24T13:18:47;5.00;;;3.67;;
79460;SDS011;68929;42.666;23.324;2023-05-24T13:21:13;4.95;;;3.53;;
79460;SDS011;68929;42.666;23.324;2023-05-24T13:23:40;5.47;;;3.03;;
79460;SDS011;68929;42.666;23.324;2023-05-24T13:26:07;3.78;;;3.40;;
79460;SDS011;68929;42.666;23.324;2023-05-24T13:28:33;7.30;;;3.72;;
79460;SDS011;68929;42.666;23.324;2023-05-24T13:30:58;4.20;;;3.42;;
79460;SDS011;68929;42.666;23.324;2023-05-24T13:33:30;8.10;;;4.13;;
79460;SDS011;68929;42.666;23.324;2023-05-24T13:35:56;7.57;;;3.78;;
79460;SDS011;68929;42.666;23.324;2023-05-24T13:38:22;6.07;;;3.83;;
79460;SDS011;68929;42.666;23.324;2023-05-24T13:40:47;7.97;;;3.70;;
79460;SDS011;68929;42.666;23.324;2023-05-24T13:43:13;6.53;;;3.63;;
79460;SDS011;68929;42.666;23.324;2023-05-24T13:45:39;5.88;;;3.90;;
79460;SDS011;68929;42.666;23.324;2023-05-24T13:48:04;7.05;;;3.95;;
79460;SDS011;68929;42.666;23.324;2023-05-24T13:50:30;6.95;;;4.20;;
79460;SDS011;68929;42.666;23.324;2023-05-24T13:52:57;5.60;;;4.10;;
79460;SDS011;68929;42.666;23.324;2023-05-24T13:55:26;7.45;;;3.70;;
79460;SDS011;68929;42.666;23.324;2023-05-24T13:57:53;6.78;;;3.72;;
79460;SDS011;68929;42.666;23.324;2023-05-24T14:00:20;11.43;;;4.60;;
79460;SDS011;68929;42.666;23.324;2023-05-24T14:02:45;6.55;;;4.10;;
79460;SDS011;68929;42.666;23.324;2023-05-24T14:05:11;5.57;;;3.90;;
79460;SDS011;68929;42.666;23.324;2023-05-24T14:07:37;8.00;;;4.95;;
79460;SDS011;68929;42.666;23.324;2023-05-24T14:10:02;7.32;;;4.93;;
79460;SDS011;68929;42.666;23.324;2023-05-24T14:12:28;9.90;;;4.95;;
79460;SDS011;68929;42.666;23.324;2023-05-24T14:14:53;6.53;;;4.18;;
79460;SDS011;68929;42.666;23.324;2023-05-24T14:17:19;5.25;;;4.10;;
79460;SDS011;68929;42.666;23.324;2023-05-24T14:19:45;5.80;;;4.15;;
79460;SDS011;68929;42.666;23.324;2023-05-24T14:22:10;5.53;;;4.43;;
79460;SDS011;68929;42.666;23.324;2023-05-24T14:24:36;8.02;;;4.80;;
79460;SDS011;68929;42.666;23.324;2023-05-24T14:27:06;5.88;;;4.22;;
79460;SDS011;68929;42.666;23.324;2023-05-24T14:29:31;9.20;;;4.93;;
79460;SDS011;68929;42.666;23.324;2023-05-24T14:31:57;10.23;;;4.45;;
79460;SDS011;68929;42.666;23.324;2023-05-24T14:34:22;9.82;;;4.72;;
79460;SDS011;68929;42.666;23.324;2023-05-24T14:36:48;8.95;;;4.20;;
79460;SDS011;68929;42.666;23.324;2023-05-24T14:39:13;9.27;;;4.38;;
79460;SDS011;68929;42.666;23.324;2023-05-24T14:41:39;7.63;;;4.85;;
79460;SDS011;68929;42.666;23.324;2023-05-24T14:44:07;10.10;;;4.53;;
79460;SDS011;68929;42.666;23.324;2023-05-24T14:46:32;6.10;;;4.43;;
79460;SDS011;68929;42.666;23.324;2023-05-24T14:48:58;6.60;;;4.63;;
79460;SDS011;68929;42.666;23.324;2023-05-24T14:51:23;6.22;;;3.72;;